createdAt,value
2022-11-27T00:01:20.460Z,9.40
2022-11-27T00:03:48.110Z,8.20
2022-11-27T00:06:19.050Z,7.30
2022-11-27T00:08:46.725Z,8.60
2022-11-27T00:11:20.653Z,8.00
2022-11-27T00:13:49.235Z,7.40
2022-11-27T00:16:17.962Z,7.90
2022-11-27T00:18:45.330Z,8.00
2022-11-27T00:21:15.880Z,8.80
2022-11-27T00:23:43.451Z,8.60
2022-11-27T00:26:11.237Z,9.20
2022-11-27T00:28:38.266Z,9.50
2022-11-27T00:31:15.807Z,7.50
2022-11-27T00:33:42.967Z,9.40
2022-11-27T00:36:11.197Z,9.20
2022-11-27T00:38:39.213Z,7.90
2022-11-27T00:41:28.316Z,8.70
2022-11-27T00:43:55.746Z,9.30
2022-11-27T00:46:29.049Z,8.80
2022-11-27T00:48:58.748Z,8.40
2022-11-27T00:51:26.714Z,8.70
2022-11-27T00:53:54.280Z,8.80
2022-11-27T00:56:27.697Z,8.10
2022-11-27T00:58:54.929Z,9.00
2022-11-27T01:01:27.910Z,9.10
2022-11-27T01:03:57.596Z,8.80
2022-11-27T01:06:25.324Z,9.00
2022-11-27T01:08:52.259Z,10.00
2022-11-27T01:11:34.303Z,9.50
2022-11-27T01:14:05.411Z,9.40
2022-11-27T01:16:33.621Z,10.80
2022-11-27T01:19:02.175Z,8.30
2022-11-27T01:21:33.553Z,9.10
2022-11-27T01:24:02.423Z,9.00
2022-11-27T01:26:29.638Z,9.00
2022-11-27T01:28:57.773Z,10.40
2022-11-27T01:31:29.480Z,8.80
2022-11-27T01:34:00.155Z,7.70
2022-11-27T01:36:28.414Z,7.20
2022-11-27T01:38:55.324Z,8.60
2022-11-27T01:41:27.207Z,7.90
2022-11-27T01:44:01.112Z,6.00
2022-11-27T01:46:42.319Z,7.40
2022-11-27T01:49:08.780Z,6.00
2022-11-27T01:51:48.196Z,8.00
2022-11-27T01:54:18.095Z,6.30
2022-11-27T01:56:49.329Z,7.30
2022-11-27T01:59:18.916Z,7.40
2022-11-27T02:01:45.504Z,5.30
2022-11-27T02:04:12.105Z,5.20
2022-11-27T02:06:38.685Z,6.70
2022-11-27T02:09:05.819Z,6.70
2022-11-27T02:11:38.451Z,7.30
2022-11-27T02:14:25.603Z,7.10
2022-11-27T02:17:28.224Z,7.00
2022-11-27T02:20:22.412Z,6.10
2022-11-27T02:23:10.829Z,6.90
2022-11-27T02:26:04.742Z,6.80
2022-11-27T02:29:02.061Z,4.20
2022-11-27T02:32:09.692Z,5.90
2022-11-27T02:34:45.480Z,5.90
2022-11-27T02:37:24.706Z,5.40
2022-11-27T02:40:25.750Z,6.40
2022-11-27T02:43:23.397Z,4.90
2022-11-27T02:45:52.006Z,6.20
2022-11-27T02:48:29.010Z,6.90
2022-11-27T02:50:55.754Z,5.50
2022-11-27T02:53:43.110Z,5.00
2022-11-27T02:56:16.092Z,3.40
2022-11-27T02:58:45.445Z,5.40
2022-11-27T03:01:14.192Z,4.80
2022-11-27T03:03:51.682Z,4.90
2022-11-27T03:06:28.689Z,5.50
2022-11-27T03:09:04.578Z,3.50
2022-11-27T03:11:31.772Z,5.50
2022-11-27T03:14:10.135Z,4.10
2022-11-27T03:17:25.886Z,4.20
2022-11-27T03:20:02.479Z,4.60
2022-11-27T03:22:31.137Z,4.80
2022-11-27T03:24:58.839Z,4.30
2022-11-27T03:27:40.257Z,5.00
2022-11-27T03:30:10.037Z,4.50
2022-11-27T03:32:37.109Z,5.30
2022-11-27T03:35:09.072Z,4.10
2022-11-27T03:37:37.600Z,4.10
2022-11-27T03:40:06.466Z,5.50
2022-11-27T03:43:05.356Z,4.80
2022-11-27T03:45:54.175Z,4.70
2022-11-27T03:48:41.211Z,5.70
2022-11-27T03:51:22.225Z,5.10
2022-11-27T03:54:15.226Z,5.10
2022-11-27T03:57:17.386Z,4.80
2022-11-27T03:59:48.482Z,4.20
2022-11-27T04:02:25.258Z,6.50
2022-11-27T04:04:51.841Z,6.00
2022-11-27T04:07:18.448Z,4.00
2022-11-27T04:09:45.008Z,5.60
2022-11-27T04:12:11.664Z,6.00
2022-11-27T04:14:38.473Z,7.00
2022-11-27T04:17:05.201Z,6.20
2022-11-27T04:19:31.788Z,7.10
2022-11-27T04:21:58.804Z,5.80
2022-11-27T04:24:25.484Z,6.00
2022-11-27T04:26:52.294Z,6.10
2022-11-27T04:29:18.820Z,6.80
2022-11-27T04:31:45.409Z,6.10
2022-11-27T04:34:12.006Z,6.40
2022-11-27T04:36:39.594Z,6.00
2022-11-27T04:39:06.478Z,6.30
2022-11-27T04:41:33.076Z,7.00
2022-11-27T04:43:59.566Z,6.60
2022-11-27T04:46:26.360Z,6.10
2022-11-27T04:48:53.064Z,6.40
2022-11-27T04:51:19.797Z,6.10
2022-11-27T04:53:46.599Z,6.40
2022-11-27T04:56:13.594Z,7.00
2022-11-27T04:58:40.314Z,5.80
2022-11-27T05:01:08.799Z,6.20
2022-11-27T05:03:36.520Z,6.80
2022-11-27T05:06:03.600Z,7.10
2022-11-27T05:08:33.100Z,7.10
2022-11-27T05:11:07.935Z,6.50
2022-11-27T05:13:34.874Z,6.50
2022-11-27T05:16:02.071Z,6.90
2022-11-27T05:18:29.297Z,7.00
2022-11-27T05:20:58.885Z,7.10
2022-11-27T05:23:26.183Z,7.50
2022-11-27T05:25:53.691Z,6.60
2022-11-27T05:28:26.385Z,6.50
2022-11-27T05:30:54.356Z,7.10
2022-11-27T05:33:21.233Z,7.30
2022-11-27T05:35:47.908Z,7.30
2022-11-27T05:38:14.445Z,7.90
2022-11-27T05:40:41.019Z,7.10
2022-11-27T05:43:07.629Z,8.00
2022-11-27T05:45:34.198Z,8.30
2022-11-27T05:48:00.721Z,7.40
2022-11-27T05:50:27.384Z,7.60
2022-11-27T05:52:54.061Z,8.20
2022-11-27T05:55:20.702Z,8.70
2022-11-27T05:57:47.256Z,7.80
2022-11-27T06:00:14.967Z,7.60
2022-11-27T06:02:41.580Z,9.50
2022-11-27T06:05:08.893Z,8.40
2022-11-27T06:07:35.430Z,7.40
2022-11-27T06:10:02.155Z,8.20
2022-11-27T06:12:32.058Z,7.30
2022-11-27T06:14:58.663Z,7.40
2022-11-27T06:17:25.333Z,8.80
2022-11-27T06:19:51.917Z,8.30
2022-11-27T06:22:18.555Z,7.20
2022-11-27T06:24:45.049Z,8.30
2022-11-27T06:27:11.641Z,8.00
2022-11-27T06:29:38.295Z,6.70
2022-11-27T06:32:06.302Z,7.20
2022-11-27T06:34:33.138Z,7.50
2022-11-27T06:36:59.930Z,7.60
2022-11-27T06:39:26.864Z,6.20
2022-11-27T06:41:53.422Z,7.30
2022-11-27T06:44:20.178Z,7.80
2022-11-27T06:46:46.913Z,6.90
2022-11-27T06:49:13.441Z,7.60
2022-11-27T06:51:40.132Z,8.20
2022-11-27T06:54:06.778Z,8.00
2022-11-27T06:56:33.324Z,7.30
2022-11-27T06:59:01.250Z,7.10
2022-11-27T07:01:30.982Z,7.60
2022-11-27T07:03:58.600Z,6.90
2022-11-27T07:06:27.170Z,8.10
2022-11-27T07:08:55.234Z,7.20
2022-11-27T07:11:26.948Z,6.50
2022-11-27T07:13:58.054Z,5.90
2022-11-27T07:16:27.051Z,4.90
2022-11-27T07:18:58.953Z,6.20
2022-11-27T07:21:27.002Z,5.50
2022-11-27T07:23:56.040Z,6.60
2022-11-27T07:26:26.830Z,6.60
2022-11-27T07:28:54.162Z,6.00
2022-11-27T07:31:27.635Z,6.90
2022-11-27T07:33:55.616Z,6.60
2022-11-27T07:36:30.436Z,5.90
2022-11-27T07:39:07.648Z,5.60
2022-11-27T07:41:35.295Z,6.20
2022-11-27T07:44:02.902Z,5.60
2022-11-27T07:46:30.075Z,6.50
2022-11-27T07:48:56.915Z,6.60
2022-11-27T07:51:23.441Z,5.70
2022-11-27T07:53:52.695Z,6.00
2022-11-27T07:56:20.127Z,5.00
2022-11-27T07:58:47.921Z,4.20
2022-11-27T08:01:18.989Z,4.60
2022-11-27T08:03:46.014Z,5.90
2022-11-27T08:06:27.013Z,6.10
2022-11-27T08:08:56.111Z,4.30
2022-11-27T08:11:31.011Z,5.80
2022-11-27T08:14:01.311Z,5.80
2022-11-27T08:16:29.072Z,5.70
2022-11-27T08:18:56.642Z,5.50
2022-11-27T08:21:23.855Z,5.40
2022-11-27T08:23:50.647Z,5.20
2022-11-27T08:26:17.643Z,4.80
2022-11-27T08:28:44.638Z,5.70
2022-11-27T08:31:14.224Z,4.00
2022-11-27T08:33:41.025Z,4.30
2022-11-27T08:36:11.470Z,3.40
2022-11-27T08:38:40.165Z,4.30
2022-11-27T08:41:08.932Z,2.30
2022-11-27T08:43:36.255Z,4.00
2022-11-27T08:46:05.450Z,3.60
2022-11-27T08:48:32.006Z,4.50
2022-11-27T08:50:58.604Z,5.30
2022-11-27T08:53:26.006Z,5.20
2022-11-27T08:55:52.555Z,5.30
2022-11-27T08:58:19.080Z,4.90
2022-11-27T09:00:45.602Z,5.10
2022-11-27T09:03:14.928Z,3.70
2022-11-27T09:05:44.262Z,3.30
2022-11-27T09:08:15.785Z,5.00
2022-11-27T09:10:42.500Z,4.30
2022-11-27T09:13:09.145Z,4.40
2022-11-27T09:15:35.673Z,3.50
2022-11-27T09:18:02.290Z,5.40
2022-11-27T09:20:28.867Z,3.80
2022-11-27T09:22:55.498Z,4.30
2022-11-27T09:25:22.802Z,4.80
2022-11-27T09:27:49.327Z,4.20
2022-11-27T09:30:16.088Z,3.80
2022-11-27T09:32:42.599Z,4.60
2022-11-27T09:35:09.198Z,4.40
2022-11-27T09:37:35.802Z,4.80
2022-11-27T09:40:02.694Z,4.60
2022-11-27T09:42:47.215Z,5.50
2022-11-27T09:45:16.913Z,5.70
2022-11-27T09:48:04.897Z,4.60
2022-11-27T09:50:49.629Z,6.00
2022-11-27T09:53:45.486Z,6.00
2022-11-27T09:56:16.804Z,4.30
2022-11-27T09:58:55.509Z,5.00
2022-11-27T10:01:38.403Z,5.60
2022-11-27T10:04:13.360Z,5.50
2022-11-27T10:07:01.921Z,6.10
2022-11-27T10:09:47.162Z,6.50
2022-11-27T10:12:51.001Z,6.90
2022-11-27T10:15:48.408Z,6.20
2022-11-27T10:18:39.984Z,7.00
2022-11-27T10:21:38.180Z,6.80
2022-11-27T10:24:43.997Z,7.80
2022-11-27T10:27:30.295Z,7.90
2022-11-27T10:29:58.514Z,8.10
2022-11-27T10:35:21.581Z,7.80
2022-11-27T10:37:56.621Z,7.90
2022-11-27T10:40:31.656Z,8.30
2022-11-27T10:43:12.281Z,8.80
2022-11-27T10:45:44.814Z,9.60
2022-11-27T10:48:13.575Z,9.00
2022-11-27T10:50:41.164Z,7.70
2022-11-27T10:53:14.407Z,9.40
2022-11-27T10:56:12.175Z,9.80
2022-11-27T10:59:00.060Z,9.10
2022-11-27T11:01:41.980Z,8.70
2022-11-27T11:04:36.319Z,8.60
2022-11-27T11:07:00.759Z,9.40
2022-11-27T11:09:31.541Z,8.60
2022-11-27T11:12:20.524Z,8.90
2022-11-27T11:14:58.983Z,9.30
2022-11-27T11:17:36.653Z,8.50
2022-11-27T11:20:24.348Z,9.90
2022-11-27T11:22:51.289Z,9.00
2022-11-27T11:25:21.110Z,8.90
2022-11-27T11:27:56.128Z,8.80
2022-11-27T11:30:29.919Z,9.30
2022-11-27T11:33:04.332Z,9.80
2022-11-27T11:35:36.961Z,9.00
2022-11-27T11:38:15.877Z,9.00
2022-11-27T11:40:56.934Z,9.40
2022-11-27T11:43:35.850Z,9.10
2022-11-27T11:46:29.030Z,10.90
2022-11-27T11:49:02.644Z,10.30
2022-11-27T11:51:55.703Z,9.50
2022-11-27T11:54:47.080Z,7.00
2022-11-27T11:57:50.337Z,9.60
2022-11-27T12:00:29.846Z,9.40
2022-11-27T12:03:08.662Z,9.70
2022-11-27T12:06:07.233Z,9.60
2022-11-27T12:09:11.500Z,9.40
2022-11-27T12:12:14.619Z,9.50
2022-11-27T12:14:52.731Z,9.30
2022-11-27T12:18:16.629Z,9.20
2022-11-27T12:21:15.308Z,8.80
2022-11-27T12:24:35.828Z,8.80
2022-11-27T12:27:20.675Z,7.70
2022-11-27T12:30:15.983Z,7.60
2022-11-27T12:32:54.425Z,7.80
2022-11-27T12:35:38.527Z,8.70
2022-11-27T12:38:25.170Z,8.40
2022-11-27T12:41:27.457Z,8.20
2022-11-27T12:44:03.570Z,9.10
2022-11-27T12:46:56.141Z,7.50
2022-11-27T12:49:43.958Z,7.70
2022-11-27T12:52:34.253Z,8.30
2022-11-27T12:55:31.027Z,7.70
2022-11-27T12:58:07.417Z,7.80
2022-11-27T13:00:40.654Z,7.80
2022-11-27T13:03:23.404Z,8.10
2022-11-27T13:06:04.086Z,8.00
2022-11-27T13:08:55.381Z,8.70
2022-11-27T13:11:38.778Z,7.80
2022-11-27T13:14:25.550Z,6.00
2022-11-27T13:17:00.890Z,6.20
2022-11-27T13:19:51.291Z,6.30
2022-11-27T13:22:40.085Z,6.80
2022-11-27T13:25:14.964Z,7.10
2022-11-27T13:27:51.628Z,6.80
2022-11-27T13:30:25.979Z,6.10
2022-11-27T13:32:59.895Z,6.40
2022-11-27T13:35:34.008Z,6.60
2022-11-27T13:38:24.496Z,6.60
2022-11-27T13:41:01.733Z,7.50
2022-11-27T13:43:47.903Z,7.50
2022-11-27T13:46:25.407Z,7.70
2022-11-27T13:49:03.270Z,7.70
2022-11-27T13:51:38.718Z,7.40
2022-11-27T13:54:10.033Z,7.40
2022-11-27T13:56:39.674Z,7.50
2022-11-27T13:59:19.147Z,8.20
2022-11-27T14:01:54.934Z,7.50
2022-11-27T14:04:22.916Z,8.00
2022-11-27T14:07:03.826Z,7.90
2022-11-27T14:09:37.845Z,7.60
2022-11-27T14:12:26.827Z,8.50
2022-11-27T14:15:07.852Z,7.40
2022-11-27T14:17:48.662Z,8.80
2022-11-27T14:20:16.841Z,7.70
2022-11-27T14:23:11.764Z,8.70
2022-11-27T14:25:41.365Z,8.30
2022-11-27T14:28:27.429Z,7.90
2022-11-27T14:30:59.392Z,7.50
2022-11-27T14:33:33.198Z,8.40
2022-11-27T14:36:07.946Z,9.40
2022-11-27T14:38:37.377Z,9.10
2022-11-27T14:41:11.085Z,9.30
2022-11-27T14:43:39.116Z,10.20
2022-11-27T14:46:17.661Z,9.30
2022-11-27T14:48:50.189Z,8.90
2022-11-27T14:51:22.055Z,10.20
2022-11-27T14:54:05.849Z,9.90
2022-11-27T14:56:39.906Z,8.70
2022-11-27T14:59:17.010Z,9.10
2022-11-27T15:01:57.532Z,8.30
2022-11-27T15:04:46.558Z,8.10
2022-11-27T15:07:27.874Z,8.80
2022-11-27T15:09:59.900Z,9.50
2022-11-27T15:12:37.386Z,9.40
2022-11-27T15:15:15.751Z,9.80
2022-11-27T15:17:54.911Z,9.70
2022-11-27T15:20:45.260Z,9.90
2022-11-27T15:23:28.547Z,10.20
2022-11-27T15:26:15.101Z,10.00
2022-11-27T15:28:47.239Z,10.20
2022-11-27T15:31:29.264Z,8.60
2022-11-27T15:34:20.143Z,10.00
2022-11-27T15:36:56.692Z,9.90
2022-11-27T15:39:39.023Z,10.80
2022-11-27T15:42:10.581Z,13.00
2022-11-27T15:44:39.185Z,13.90
2022-11-27T15:47:29.170Z,13.40
2022-11-27T15:49:57.725Z,13.60
2022-11-27T15:52:26.894Z,13.40
2022-11-27T15:54:56.804Z,13.10
2022-11-27T15:57:26.407Z,13.30
2022-11-27T15:59:54.310Z,12.80
2022-11-27T16:02:23.477Z,14.50
2022-11-27T16:04:51.456Z,13.30
2022-11-27T16:07:19.594Z,14.50
2022-11-27T16:09:47.923Z,14.30
2022-11-27T16:12:15.933Z,14.60
2022-11-27T16:14:43.904Z,16.20
2022-11-27T16:17:12.012Z,15.60
2022-11-27T16:19:40.983Z,15.30
2022-11-27T16:22:09.245Z,14.00
2022-11-27T16:24:38.288Z,13.80
2022-11-27T16:27:07.457Z,13.60
2022-11-27T16:29:37.779Z,15.20
2022-11-27T16:32:06.471Z,14.60
2022-11-27T16:34:34.586Z,15.10
2022-11-27T16:37:02.585Z,14.90
2022-11-27T16:39:30.500Z,14.80
2022-11-27T16:41:58.470Z,15.00
2022-11-27T16:44:26.343Z,14.40
2022-11-27T16:46:54.416Z,16.20
2022-11-27T16:49:22.546Z,19.70
2022-11-27T16:51:50.467Z,16.20
2022-11-27T16:54:18.380Z,16.10
2022-11-27T16:56:46.484Z,19.30
2022-11-27T16:59:15.645Z,15.80
2022-11-27T17:01:44.232Z,13.00
2022-11-27T17:04:19.731Z,15.70
2022-11-27T17:06:50.061Z,15.10
2022-11-27T17:09:18.434Z,17.20
2022-11-27T17:11:50.571Z,19.70
2022-11-27T17:14:20.280Z,20.40
2022-11-27T17:16:48.693Z,19.40
2022-11-27T17:19:17.282Z,22.10
2022-11-27T17:21:45.810Z,23.10
2022-11-27T17:24:17.007Z,21.40
2022-11-27T17:26:49.612Z,21.60
2022-11-27T17:29:21.948Z,19.80
2022-11-27T17:31:54.128Z,20.00
2022-11-27T17:34:22.365Z,21.50
2022-11-27T17:36:57.565Z,20.10
2022-11-27T17:39:28.151Z,22.70
2022-11-27T17:41:56.256Z,21.10
2022-11-27T17:44:26.692Z,16.80
2022-11-27T17:46:57.027Z,15.50
2022-11-27T17:49:25.678Z,16.60
2022-11-27T17:51:56.702Z,17.20
2022-11-27T17:54:39.932Z,19.60
2022-11-27T17:57:10.944Z,17.20
2022-11-27T17:59:44.697Z,19.40
2022-11-27T18:02:12.964Z,17.70
2022-11-27T18:04:43.439Z,17.10
2022-11-27T18:07:17.442Z,13.60
2022-11-27T18:09:55.061Z,17.60
2022-11-27T18:12:23.768Z,18.30
2022-11-27T18:14:55.417Z,17.90
2022-11-27T18:17:29.215Z,20.00
2022-11-27T18:19:59.156Z,20.30
2022-11-27T18:22:27.079Z,19.80
2022-11-27T18:24:55.248Z,20.80
2022-11-27T18:27:23.280Z,20.10
2022-11-27T18:29:51.293Z,19.80
2022-11-27T18:32:19.701Z,19.10
2022-11-27T18:34:47.734Z,24.30
2022-11-27T18:37:16.674Z,24.40
2022-11-27T18:39:45.502Z,21.70
2022-11-27T18:42:15.878Z,20.60
2022-11-27T18:44:45.162Z,19.40
2022-11-27T18:47:17.265Z,18.70
2022-11-27T18:49:45.359Z,20.10
2022-11-27T18:52:13.835Z,18.90
2022-11-27T18:54:42.164Z,17.80
2022-11-27T18:57:11.359Z,18.50
2022-11-27T18:59:42.680Z,17.70
2022-11-27T19:02:12.868Z,19.00
2022-11-27T19:04:47.665Z,17.80
2022-11-27T19:07:17.854Z,17.90
2022-11-27T19:09:54.110Z,17.10
2022-11-27T19:12:30.543Z,16.60
2022-11-27T19:15:11.183Z,16.10
2022-11-27T19:17:40.489Z,16.60
2022-11-27T19:20:14.132Z,15.70
2022-11-27T19:22:43.386Z,14.70
2022-11-27T19:25:15.433Z,15.80
2022-11-27T19:27:47.087Z,14.30
2022-11-27T19:30:19.412Z,12.70
2022-11-27T19:32:56.618Z,12.10
2022-11-27T19:35:43.107Z,13.00
2022-11-27T19:38:13.091Z,14.80
2022-11-27T19:40:43.607Z,14.90
2022-11-27T19:43:13.051Z,15.70
2022-11-27T19:45:42.741Z,15.50
2022-11-27T19:48:23.509Z,15.70
2022-11-27T19:50:52.297Z,15.40
2022-11-27T19:53:24.587Z,16.90
2022-11-27T19:55:56.350Z,15.70
2022-11-27T19:58:26.251Z,16.20
2022-11-27T20:01:17.005Z,15.90
2022-11-27T20:04:14.026Z,14.90
2022-11-27T20:06:44.498Z,15.40
2022-11-27T20:09:14.163Z,15.40
2022-11-27T20:11:42.232Z,16.40
2022-11-27T20:14:10.236Z,14.90
2022-11-27T20:16:38.173Z,16.10
2022-11-27T20:19:06.736Z,15.70
2022-11-27T20:21:37.005Z,14.90
2022-11-27T20:24:05.331Z,16.00
2022-11-27T20:26:39.688Z,15.50
2022-11-27T20:29:12.971Z,16.70
2022-11-27T20:31:44.732Z,19.60
2022-11-27T20:34:22.455Z,16.80
2022-11-27T20:36:50.933Z,19.10
2022-11-27T20:39:21.657Z,15.40
2022-11-27T20:41:52.042Z,18.40
2022-11-27T20:44:22.846Z,25.00
2022-11-27T20:46:51.414Z,24.40
2022-11-27T20:49:22.776Z,25.00
2022-11-27T20:51:51.050Z,25.60
2022-11-27T20:54:21.715Z,24.50
2022-11-27T20:56:53.803Z,23.90
2022-11-27T20:59:31.677Z,24.30
2022-11-27T21:02:42.938Z,24.70
2022-11-27T21:05:13.280Z,24.70
2022-11-27T21:07:44.483Z,25.20
2022-11-27T21:10:20.602Z,23.60
2022-11-27T21:12:50.520Z,24.90
2022-11-27T21:15:29.935Z,25.40
2022-11-27T21:17:57.873Z,25.90
2022-11-27T21:20:35.816Z,24.50
2022-11-27T21:23:04.302Z,25.90
2022-11-27T21:25:41.848Z,28.50
2022-11-27T21:28:15.712Z,28.40
2022-11-27T21:30:54.628Z,28.10
2022-11-27T21:33:22.598Z,30.00
2022-11-27T21:35:56.772Z,29.40
2022-11-27T21:38:49.152Z,28.20
2022-11-27T21:41:21.130Z,27.70
2022-11-27T21:44:03.559Z,28.00
2022-11-27T21:46:35.985Z,29.00
2022-11-27T21:49:21.363Z,29.40
2022-11-27T21:51:55.978Z,28.10
2022-11-27T21:54:30.980Z,28.80
2022-11-27T21:57:06.664Z,30.50
2022-11-27T21:59:44.665Z,29.70
2022-11-27T22:02:23.099Z,28.00
2022-11-27T22:04:54.937Z,28.30
2022-11-27T22:07:24.134Z,28.90
2022-11-27T22:09:53.984Z,30.20
2022-11-27T22:12:22.157Z,34.30
2022-11-27T22:14:50.699Z,29.60
2022-11-27T22:17:21.073Z,30.20
2022-11-27T22:19:51.588Z,30.90
2022-11-27T22:22:20.829Z,29.60
2022-11-27T22:24:49.183Z,31.30
2022-11-27T22:27:24.494Z,28.80
2022-11-27T22:29:54.442Z,29.90
2022-11-27T22:32:25.087Z,29.50
2022-11-27T22:35:01.125Z,29.90
2022-11-27T22:37:36.691Z,27.50
2022-11-27T22:40:06.419Z,27.40
2022-11-27T22:42:35.345Z,27.40
2022-11-27T22:45:05.902Z,26.00
2022-11-27T22:47:37.330Z,26.40
2022-11-27T22:50:09.366Z,25.90
2022-11-27T22:52:37.258Z,25.80
2022-11-27T22:55:06.295Z,27.90
2022-11-27T22:57:34.668Z,25.70
2022-11-27T23:00:04.276Z,28.30
2022-11-27T23:02:32.240Z,25.70
2022-11-27T23:05:00.298Z,26.40
2022-11-27T23:07:28.250Z,28.10
2022-11-27T23:09:56.151Z,27.00
2022-11-27T23:12:24.147Z,24.60
2022-11-27T23:14:52.120Z,25.70
2022-11-27T23:17:19.968Z,25.20
2022-11-27T23:19:47.913Z,25.40
2022-11-27T23:22:15.860Z,25.70
2022-11-27T23:24:44.086Z,22.90
2022-11-27T23:27:12.212Z,24.30
2022-11-27T23:29:40.139Z,22.80
2022-11-27T23:32:08.070Z,22.00
2022-11-27T23:34:36.039Z,22.20
2022-11-27T23:37:03.941Z,21.90
2022-11-27T23:39:31.860Z,21.20
2022-11-27T23:41:59.791Z,18.50
2022-11-27T23:44:27.692Z,19.90
2022-11-27T23:46:55.576Z,17.90
2022-11-27T23:49:24.015Z,20.10
2022-11-27T23:51:51.983Z,18.10
2022-11-27T23:54:19.932Z,18.50
2022-11-27T23:56:51.950Z,16.00
2022-11-27T23:59:20.056Z,17.90
